createdAt,value
2017-04-22T00:00:03.459Z,0
2017-04-22T00:00:43.982Z,0
2017-04-22T00:01:24.506Z,0
2017-04-22T00:02:05.049Z,0
2017-04-22T00:02:45.588Z,0
2017-04-22T00:03:26.122Z,0
2017-04-22T00:04:06.664Z,0
2017-04-22T00:04:47.200Z,0
2017-04-22T00:05:27.734Z,0
2017-04-22T00:06:08.261Z,0
2017-04-22T00:06:48.804Z,0
2017-04-22T00:07:29.350Z,0
2017-04-22T00:08:09.890Z,0
2017-04-22T00:08:50.422Z,0
2017-04-22T00:09:30.965Z,0
2017-04-22T00:10:11.497Z,0
2017-04-22T00:10:52.031Z,0
2017-04-22T00:11:32.564Z,0
2017-04-22T00:12:13.101Z,0
2017-04-22T00:12:53.654Z,0
2017-04-22T00:13:34.208Z,0
2017-04-22T00:14:14.753Z,0
2017-04-22T00:14:55.298Z,0
2017-04-22T00:15:35.829Z,0
2017-04-22T00:16:16.372Z,0
2017-04-22T00:16:56.906Z,0
2017-04-22T00:17:37.441Z,0
2017-04-22T00:18:17.970Z,0
2017-04-22T00:18:58.508Z,0
2017-04-22T00:19:39.045Z,0
2017-04-22T00:20:19.604Z,0
2017-04-22T00:21:00.129Z,0
2017-04-22T00:21:40.654Z,0
2017-04-22T00:22:21.193Z,0
2017-04-22T00:23:01.728Z,0
2017-04-22T00:23:42.264Z,0
2017-04-22T00:24:22.807Z,0
2017-04-22T00:25:03.341Z,0
2017-04-22T00:25:43.880Z,0
2017-04-22T00:26:24.412Z,0
2017-04-22T00:27:04.942Z,0
2017-04-22T00:27:45.492Z,0
2017-04-22T00:28:26.012Z,0
2017-04-22T00:29:06.568Z,0
2017-04-22T00:29:47.105Z,0
2017-04-22T00:30:27.642Z,0
2017-04-22T00:31:08.191Z,0
2017-04-22T00:31:48.719Z,0
2017-04-22T00:32:29.257Z,0
2017-04-22T00:33:09.804Z,0
2017-04-22T00:33:50.334Z,0
2017-04-22T00:34:30.873Z,0
2017-04-22T00:35:11.407Z,0
2017-04-22T00:35:51.946Z,0
2017-04-22T00:36:32.493Z,0
2017-04-22T00:37:13.016Z,0
2017-04-22T00:37:53.549Z,0
2017-04-22T00:38:34.090Z,0
2017-04-22T00:39:14.628Z,0
2017-04-22T00:39:55.176Z,0
2017-04-22T00:40:35.712Z,0
2017-04-22T00:41:16.250Z,0
2017-04-22T00:41:56.774Z,0
2017-04-22T00:42:37.317Z,0
2017-04-22T00:43:17.842Z,0
2017-04-22T00:43:58.374Z,0
2017-04-22T00:44:38.916Z,0
2017-04-22T00:45:19.455Z,0
2017-04-22T00:45:59.983Z,0
2017-04-22T00:46:40.510Z,0
2017-04-22T00:47:21.062Z,0
2017-04-22T00:48:01.581Z,0
2017-04-22T00:48:42.125Z,0
2017-04-22T00:49:22.657Z,0
2017-04-22T00:50:03.206Z,0
2017-04-22T00:50:43.735Z,0
2017-04-22T00:51:24.264Z,0
2017-04-22T00:52:04.795Z,0
2017-04-22T00:52:45.337Z,0
2017-04-22T00:53:25.893Z,0
2017-04-22T00:54:06.424Z,0
2017-04-22T00:54:46.964Z,0
2017-04-22T00:55:27.524Z,0
2017-04-22T00:56:08.053Z,0
2017-04-22T00:56:48.583Z,0
2017-04-22T00:57:29.113Z,0
2017-04-22T00:58:09.661Z,0
2017-04-22T00:58:50.189Z,0
2017-04-22T00:59:30.733Z,0
2017-04-22T01:00:11.269Z,0
2017-04-22T01:00:51.817Z,0
2017-04-22T01:01:32.356Z,0
2017-04-22T01:02:12.890Z,0
2017-04-22T01:02:53.421Z,0
2017-04-22T01:03:33.955Z,0
2017-04-22T01:04:14.493Z,0
2017-04-22T01:04:55.060Z,0
2017-04-22T01:05:35.600Z,0
2017-04-22T01:06:16.142Z,0
2017-04-22T01:06:56.674Z,0
2017-04-22T01:07:37.218Z,0
2017-04-22T01:08:17.744Z,0
2017-04-22T01:08:58.281Z,0
2017-04-22T01:09:38.816Z,0
2017-04-22T01:10:19.351Z,0
2017-04-22T01:10:59.893Z,0
2017-04-22T01:11:40.426Z,0
2017-04-22T01:12:20.973Z,0
2017-04-22T01:13:01.517Z,0
2017-04-22T01:13:42.062Z,0
2017-04-22T01:14:22.588Z,0
2017-04-22T01:15:03.108Z,0
2017-04-22T01:15:43.657Z,0
2017-04-22T01:16:24.198Z,0
2017-04-22T01:17:04.734Z,0
2017-04-22T01:17:45.281Z,0
2017-04-22T01:18:25.834Z,0
2017-04-22T01:19:06.354Z,0
2017-04-22T01:19:46.889Z,0
2017-04-22T01:20:27.421Z,0
2017-04-22T01:21:07.965Z,0
2017-04-22T01:21:48.519Z,0
2017-04-22T01:22:29.063Z,0
2017-04-22T01:23:09.616Z,0
2017-04-22T01:23:50.155Z,0
2017-04-22T01:24:30.687Z,0
2017-04-22T01:25:11.210Z,0
2017-04-22T01:25:51.759Z,0
2017-04-22T01:26:32.304Z,0
2017-04-22T01:27:12.860Z,0
2017-04-22T01:27:53.401Z,0
2017-04-22T01:28:33.939Z,0
2017-04-22T01:29:14.477Z,0
2017-04-22T01:29:55.022Z,0
2017-04-22T01:30:35.560Z,0
2017-04-22T01:31:16.095Z,0
2017-04-22T01:31:56.630Z,0
2017-04-22T01:32:37.168Z,0
2017-04-22T01:33:17.705Z,0
2017-04-22T01:33:58.238Z,0
2017-04-22T01:34:38.780Z,0
2017-04-22T01:35:19.323Z,0
2017-04-22T01:35:59.867Z,0
2017-04-22T01:36:40.406Z,0
2017-04-22T01:37:20.948Z,0
2017-04-22T01:38:01.496Z,0
2017-04-22T01:38:42.023Z,0
2017-04-22T01:39:22.559Z,0
2017-04-22T01:40:03.101Z,0
2017-04-22T01:40:43.631Z,0
2017-04-22T01:41:24.169Z,0
2017-04-22T01:42:04.701Z,0
2017-04-22T01:42:45.249Z,0
2017-04-22T01:43:25.790Z,0
2017-04-22T01:44:06.326Z,0
2017-04-22T01:44:46.883Z,0
2017-04-22T01:45:27.417Z,0
2017-04-22T01:46:07.955Z,0
2017-04-22T01:46:48.493Z,0
2017-04-22T01:47:29.040Z,0
2017-04-22T01:48:09.585Z,0
2017-04-22T01:48:50.132Z,0
2017-04-22T01:49:30.668Z,0
2017-04-22T01:50:11.209Z,0
2017-04-22T01:50:51.735Z,0
2017-04-22T01:51:32.283Z,0
2017-04-22T01:52:12.826Z,0
2017-04-22T01:52:53.371Z,0
2017-04-22T01:53:33.905Z,0
2017-04-22T01:54:14.439Z,0
2017-04-22T01:54:55.032Z,0
2017-04-22T01:55:35.557Z,0
2017-04-22T01:56:16.102Z,0
2017-04-22T01:56:56.642Z,0
2017-04-22T01:57:37.193Z,0
2017-04-22T01:58:17.731Z,0
2017-04-22T01:58:58.268Z,0
2017-04-22T01:59:38.809Z,0
2017-04-22T02:00:19.346Z,0
2017-04-22T02:00:59.877Z,0
2017-04-22T02:01:40.428Z,0
2017-04-22T02:02:20.958Z,0
2017-04-22T02:03:01.500Z,0
2017-04-22T02:03:42.038Z,0
2017-04-22T02:04:22.578Z,0
2017-04-22T02:05:03.127Z,0
2017-04-22T02:05:43.660Z,0
2017-04-22T02:06:24.203Z,0
2017-04-22T02:07:04.728Z,0
2017-04-22T02:07:45.267Z,0
2017-04-22T02:08:25.811Z,0
2017-04-22T02:09:06.355Z,0
2017-04-22T02:09:46.883Z,0
2017-04-22T02:10:27.429Z,0
2017-04-22T02:11:07.952Z,0
2017-04-22T02:11:48.491Z,0
2017-04-22T02:12:29.030Z,0
2017-04-22T02:13:09.566Z,0
2017-04-22T02:13:50.114Z,0
2017-04-22T02:14:30.653Z,0
2017-04-22T02:15:11.198Z,0
2017-04-22T02:15:51.738Z,0
2017-04-22T02:16:32.284Z,0
2017-04-22T02:17:12.810Z,0
2017-04-22T02:17:53.351Z,0
2017-04-22T02:18:33.886Z,0
2017-04-22T02:19:14.427Z,0
2017-04-22T02:19:54.966Z,0
2017-04-22T02:20:35.518Z,0
2017-04-22T02:21:16.066Z,0
2017-04-22T02:21:56.604Z,0
2017-04-22T02:22:37.140Z,0
2017-04-22T02:23:17.680Z,0
2017-04-22T02:23:58.231Z,0
2017-04-22T02:24:38.762Z,0
2017-04-22T02:25:19.296Z,0
2017-04-22T02:25:59.844Z,0
2017-04-22T02:26:40.384Z,0
2017-04-22T02:27:20.927Z,0
2017-04-22T02:28:01.473Z,0
2017-04-22T02:28:42.018Z,0
2017-04-22T02:29:22.558Z,0
2017-04-22T02:30:03.111Z,0
2017-04-22T02:30:43.637Z,0
2017-04-22T02:31:24.175Z,0
2017-04-22T02:32:04.696Z,0
2017-04-22T02:32:45.234Z,0
2017-04-22T02:33:25.776Z,0
2017-04-22T02:34:06.321Z,0
2017-04-22T02:34:46.862Z,0
2017-04-22T02:35:27.403Z,0
2017-04-22T02:36:07.952Z,0
2017-04-22T02:36:48.491Z,0
2017-04-22T02:37:29.026Z,0
2017-04-22T02:38:09.562Z,0
2017-04-22T02:38:50.097Z,0
2017-04-22T02:39:30.638Z,0
2017-04-22T02:40:11.187Z,0
2017-04-22T02:40:51.728Z,0
2017-04-22T02:41:32.260Z,0
2017-04-22T02:42:12.807Z,0
2017-04-22T02:42:53.334Z,0
2017-04-22T02:43:33.876Z,0
2017-04-22T02:44:14.423Z,0
2017-04-22T02:44:54.959Z,0
2017-04-22T02:45:35.492Z,0
2017-04-22T02:46:16.036Z,0
2017-04-22T02:46:56.573Z,0
2017-04-22T02:47:37.113Z,0
2017-04-22T02:48:17.655Z,0
2017-04-22T02:48:58.186Z,0
2017-04-22T02:49:38.727Z,0
2017-04-22T02:50:19.269Z,0
2017-04-22T02:50:59.809Z,0
2017-04-22T02:51:40.347Z,0
2017-04-22T02:52:20.896Z,0
2017-04-22T02:53:01.544Z,0
2017-04-22T02:53:42.020Z,0
2017-04-22T02:54:22.562Z,0
2017-04-22T02:55:03.097Z,0
2017-04-22T02:55:43.650Z,0
2017-04-22T02:56:24.185Z,0
2017-04-22T02:57:04.720Z,0
2017-04-22T02:57:45.255Z,0
2017-04-22T02:58:25.795Z,0
2017-04-22T02:59:06.335Z,0
2017-04-22T02:59:46.885Z,0
2017-04-22T03:00:27.438Z,0
2017-04-22T03:01:07.978Z,0
2017-04-22T03:01:48.517Z,0
2017-04-22T03:02:29.059Z,0
2017-04-22T03:03:09.604Z,0
2017-04-22T03:03:50.160Z,0
2017-04-22T03:04:30.721Z,0
2017-04-22T03:05:11.240Z,0
2017-04-22T03:05:51.791Z,0
2017-04-22T03:06:32.320Z,0
2017-04-22T03:07:12.856Z,0
2017-04-22T03:07:53.397Z,0
2017-04-22T03:08:33.928Z,0
2017-04-22T03:09:14.467Z,0
2017-04-22T03:09:55.014Z,0
2017-04-22T03:10:35.566Z,0
2017-04-22T03:11:16.117Z,0
2017-04-22T03:11:56.662Z,0
2017-04-22T03:12:37.193Z,0
2017-04-22T03:13:17.739Z,0
2017-04-22T03:13:58.278Z,0
2017-04-22T03:14:38.811Z,0
2017-04-22T03:15:19.389Z,0
2017-04-22T03:15:59.916Z,0
2017-04-22T03:16:40.466Z,0
2017-04-22T03:17:21.003Z,0
2017-04-22T03:18:01.535Z,0
2017-04-22T03:18:42.076Z,0
2017-04-22T03:19:22.624Z,0
2017-04-22T03:20:03.165Z,0
2017-04-22T03:20:43.716Z,0
2017-04-22T03:21:24.257Z,0
2017-04-22T03:22:04.799Z,0
2017-04-22T03:22:45.334Z,0
2017-04-22T03:23:25.871Z,0
2017-04-22T03:24:06.390Z,0
2017-04-22T03:24:46.927Z,0
2017-04-22T03:25:27.479Z,0
2017-04-22T03:26:08.020Z,0
2017-04-22T03:26:48.556Z,0
2017-04-22T03:27:29.101Z,0
2017-04-22T03:28:09.656Z,0
2017-04-22T03:28:50.170Z,0
2017-04-22T03:29:30.775Z,0
2017-04-22T03:30:11.367Z,0
2017-04-22T03:30:51.918Z,0
2017-04-22T03:31:32.509Z,0
2017-04-22T03:32:13.120Z,0
2017-04-22T03:32:53.679Z,0
2017-04-22T03:33:34.257Z,0
2017-04-22T03:34:14.852Z,0
2017-04-22T03:34:55.417Z,0
2017-04-22T03:35:36.029Z,0
2017-04-22T03:36:16.580Z,0
2017-04-22T03:36:57.151Z,0
2017-04-22T03:37:37.805Z,0
2017-04-22T03:38:18.447Z,0
2017-04-22T03:38:59.062Z,0
2017-04-22T03:39:39.655Z,0
2017-04-22T03:40:20.190Z,0
2017-04-22T03:41:00.781Z,0
2017-04-22T03:41:41.429Z,0
2017-04-22T03:42:21.925Z,0
2017-04-22T03:43:02.472Z,0
2017-04-22T03:43:43.097Z,0
2017-04-22T03:44:23.689Z,0
2017-04-22T03:45:04.273Z,0
2017-04-22T03:45:44.844Z,0
2017-04-22T03:46:25.441Z,0
2017-04-22T03:47:05.989Z,0
2017-04-22T03:47:46.594Z,0
2017-04-22T03:48:27.112Z,0
2017-04-22T03:49:07.755Z,0
2017-04-22T03:49:48.297Z,0
2017-04-22T03:50:28.863Z,0
2017-04-22T03:51:09.457Z,0
2017-04-22T03:51:49.972Z,0
2017-04-22T03:52:30.520Z,0
2017-04-22T03:53:11.063Z,0
2017-04-22T03:53:51.628Z,0
2017-04-22T03:54:32.206Z,0
2017-04-22T03:55:12.699Z,0
2017-04-22T03:55:53.233Z,0
2017-04-22T03:56:33.788Z,0
2017-04-22T03:57:14.341Z,0
2017-04-22T03:57:54.858Z,0
2017-04-22T03:58:35.398Z,0
2017-04-22T03:59:15.947Z,0
2017-04-22T03:59:56.495Z,0
2017-04-22T04:00:37.052Z,0
2017-04-22T04:01:17.568Z,0
2017-04-22T04:01:58.116Z,0
2017-04-22T04:02:38.643Z,0
2017-04-22T04:03:19.186Z,4
2017-04-22T04:03:59.734Z,4
2017-04-22T04:04:40.288Z,0
2017-04-22T04:05:20.816Z,4
2017-04-22T04:06:01.355Z,4
2017-04-22T04:06:41.904Z,8
2017-04-22T04:07:22.451Z,4
2017-04-22T04:08:02.979Z,8
2017-04-22T04:08:43.527Z,8
2017-04-22T04:09:24.064Z,4
2017-04-22T04:10:04.600Z,8
2017-04-22T04:10:45.138Z,4
2017-04-22T04:11:25.704Z,8
2017-04-22T04:12:06.222Z,4
2017-04-22T04:12:46.762Z,8
2017-04-22T04:13:27.306Z,8
2017-04-22T04:14:07.857Z,8
2017-04-22T04:14:48.390Z,8
2017-04-22T04:15:28.932Z,8
2017-04-22T04:16:09.471Z,12
2017-04-22T04:16:50.005Z,12
2017-04-22T04:17:30.543Z,12
2017-04-22T04:18:11.096Z,16
2017-04-22T04:18:51.625Z,12
2017-04-22T04:19:32.165Z,16
2017-04-22T04:20:12.705Z,12
2017-04-22T04:20:53.250Z,12
2017-04-22T04:21:33.783Z,16
2017-04-22T04:22:14.312Z,12
2017-04-22T04:22:54.850Z,16
2017-04-22T04:23:35.380Z,12
2017-04-22T04:24:15.920Z,16
2017-04-22T04:24:56.458Z,16
2017-04-22T04:25:36.998Z,20
2017-04-22T04:26:17.583Z,24
2017-04-22T04:26:58.091Z,20
2017-04-22T04:27:38.613Z,28
2017-04-22T04:28:19.151Z,24
2017-04-22T04:28:59.687Z,24
2017-04-22T04:29:40.225Z,32
2017-04-22T04:30:20.771Z,32
2017-04-22T04:31:01.316Z,36
2017-04-22T04:31:41.975Z,32
2017-04-22T04:32:22.534Z,28
2017-04-22T04:33:03.115Z,32
2017-04-22T04:33:43.649Z,24
2017-04-22T04:34:24.186Z,28
2017-04-22T04:35:04.721Z,36
2017-04-22T04:35:45.251Z,48
2017-04-22T04:36:25.788Z,52
2017-04-22T04:37:06.325Z,60
2017-04-22T04:37:46.866Z,68
2017-04-22T04:38:27.399Z,64
2017-04-22T04:39:07.936Z,64
2017-04-22T04:39:48.469Z,72
2017-04-22T04:40:29.008Z,72
2017-04-22T04:41:09.544Z,72
2017-04-22T04:41:50.108Z,72
2017-04-22T04:42:30.645Z,84
2017-04-22T04:43:11.187Z,72
2017-04-22T04:43:51.733Z,64
2017-04-22T04:44:32.262Z,60
2017-04-22T04:45:12.826Z,60
2017-04-22T04:45:53.362Z,68
2017-04-22T04:46:33.903Z,64
2017-04-22T04:47:14.441Z,56
2017-04-22T04:47:54.984Z,56
2017-04-22T04:48:35.528Z,56
2017-04-22T04:49:16.104Z,56
2017-04-22T04:49:56.681Z,64
2017-04-22T04:50:37.241Z,84
2017-04-22T04:51:17.793Z,92
2017-04-22T04:51:58.330Z,88
2017-04-22T04:52:38.862Z,84
2017-04-22T04:53:19.399Z,80
2017-04-22T04:53:59.923Z,76
2017-04-22T04:54:40.477Z,80
2017-04-22T04:55:21.018Z,96
2017-04-22T04:56:01.549Z,92
2017-04-22T04:56:42.084Z,76
2017-04-22T04:57:22.647Z,60
2017-04-22T04:58:03.169Z,56
2017-04-22T04:58:43.704Z,64
2017-04-22T04:59:24.247Z,84
2017-04-22T05:00:04.795Z,112
2017-04-22T05:00:45.327Z,116
2017-04-22T05:01:25.850Z,100
2017-04-22T05:02:06.391Z,88
2017-04-22T05:02:46.920Z,84
2017-04-22T05:03:27.459Z,84
2017-04-22T05:04:08.000Z,96
2017-04-22T05:04:48.532Z,92
2017-04-22T05:05:29.080Z,72
2017-04-22T05:06:09.619Z,60
2017-04-22T05:06:50.155Z,56
2017-04-22T05:07:30.717Z,48
2017-04-22T05:08:11.235Z,48
2017-04-22T05:08:51.784Z,52
2017-04-22T05:09:32.315Z,60
2017-04-22T05:10:12.870Z,72
2017-04-22T05:10:53.418Z,84
2017-04-22T05:11:33.966Z,88
2017-04-22T05:12:14.504Z,80
2017-04-22T05:12:55.048Z,88
2017-04-22T05:13:35.589Z,76
2017-04-22T05:14:16.125Z,72
2017-04-22T05:14:56.661Z,72
2017-04-22T05:15:37.207Z,84
2017-04-22T05:16:17.750Z,84
2017-04-22T05:16:58.280Z,88
2017-04-22T05:17:38.819Z,104
2017-04-22T05:18:19.381Z,132
2017-04-22T05:18:59.891Z,156
2017-04-22T05:19:40.428Z,168
2017-04-22T05:20:20.973Z,180
2017-04-22T05:21:01.517Z,188
2017-04-22T05:21:42.038Z,200
2017-04-22T05:22:22.579Z,220
2017-04-22T05:23:03.117Z,240
2017-04-22T05:23:43.648Z,244
2017-04-22T05:24:24.181Z,252
2017-04-22T05:25:04.720Z,264
2017-04-22T05:25:45.261Z,284
2017-04-22T05:26:25.792Z,248
2017-04-22T05:27:06.326Z,264
2017-04-22T05:27:46.864Z,256
2017-04-22T05:28:27.402Z,236
2017-04-22T05:29:07.954Z,236
2017-04-22T05:29:48.501Z,232
2017-04-22T05:30:29.055Z,264
2017-04-22T05:31:09.631Z,240
2017-04-22T05:31:50.157Z,212
2017-04-22T05:32:30.704Z,192
2017-04-22T05:33:11.251Z,188
2017-04-22T05:33:51.812Z,180
2017-04-22T05:34:32.358Z,180
2017-04-22T05:35:12.929Z,188
2017-04-22T05:35:53.463Z,200
2017-04-22T05:36:34.010Z,196
2017-04-22T05:37:14.563Z,196
2017-04-22T05:37:55.116Z,200
2017-04-22T05:38:35.636Z,208
2017-04-22T05:39:16.161Z,220
2017-04-22T05:39:56.737Z,252
2017-04-22T05:40:37.257Z,244
2017-04-22T05:41:17.802Z,236
2017-04-22T05:41:58.348Z,232
2017-04-22T05:42:38.892Z,244
2017-04-22T05:43:19.423Z,272
2017-04-22T05:43:59.968Z,292
2017-04-22T05:44:40.490Z,312
2017-04-22T05:45:21.012Z,312
2017-04-22T05:46:01.552Z,364
2017-04-22T05:46:42.146Z,344
2017-04-22T05:47:23.061Z,324
2017-04-22T05:48:03.664Z,316
2017-04-22T05:48:44.186Z,308
2017-04-22T05:49:24.712Z,324
2017-04-22T05:50:05.263Z,332
2017-04-22T05:50:45.802Z,340
2017-04-22T05:51:26.350Z,356
2017-04-22T05:52:06.899Z,364
2017-04-22T05:52:47.438Z,348
2017-04-22T05:53:27.979Z,380
2017-04-22T05:54:08.769Z,404
2017-04-22T05:54:49.314Z,420
2017-04-22T05:55:29.849Z,340
2017-04-22T05:56:10.386Z,352
2017-04-22T05:56:50.924Z,376
2017-04-22T05:57:31.554Z,424
2017-04-22T05:58:12.092Z,604
2017-04-22T05:58:52.625Z,604
2017-04-22T05:59:33.161Z,596
2017-04-22T06:00:13.706Z,812
2017-04-22T06:00:54.229Z,916
2017-04-22T06:01:34.767Z,804
2017-04-22T06:02:15.303Z,812
2017-04-22T06:02:55.854Z,536
2017-04-22T06:03:36.388Z,396
2017-04-22T06:04:16.939Z,428
2017-04-22T06:04:57.474Z,476
2017-04-22T06:05:38.023Z,472
2017-04-22T06:06:18.547Z,488
2017-04-22T06:06:59.073Z,552
2017-04-22T06:07:39.601Z,624
2017-04-22T06:08:20.140Z,528
2017-04-22T06:09:00.678Z,568
2017-04-22T06:09:41.210Z,664
2017-04-22T06:10:21.798Z,608
2017-04-22T06:11:02.350Z,560
2017-04-22T06:11:42.879Z,552
2017-04-22T06:12:23.425Z,524
2017-04-22T06:13:03.962Z,504
2017-04-22T06:13:44.490Z,432
2017-04-22T06:14:25.003Z,432
2017-04-22T06:15:05.539Z,440
2017-04-22T06:15:46.066Z,436
2017-04-22T06:16:26.596Z,460
2017-04-22T06:17:07.132Z,476
2017-04-22T06:17:47.688Z,476
2017-04-22T06:18:28.240Z,456
2017-04-22T06:19:08.757Z,452
2017-04-22T06:19:49.306Z,424
2017-04-22T06:20:29.827Z,376
2017-04-22T06:21:10.370Z,352
2017-04-22T06:21:50.893Z,332
2017-04-22T06:22:31.446Z,352
2017-04-22T06:23:11.962Z,360
2017-04-22T06:23:52.500Z,364
2017-04-22T06:24:33.031Z,384
2017-04-22T06:25:13.626Z,404
2017-04-22T06:25:54.158Z,424
2017-04-22T06:26:34.702Z,440
2017-04-22T06:27:15.237Z,440
2017-04-22T06:27:55.773Z,496
2017-04-22T06:28:36.304Z,644
2017-04-22T06:29:16.814Z,824
2017-04-22T06:29:57.354Z,780
2017-04-22T06:30:37.882Z,852
2017-04-22T06:31:18.421Z,976
2017-04-22T06:31:58.960Z,1048
2017-04-22T06:32:39.490Z,1024
2017-04-22T06:33:20.030Z,1076
2017-04-22T06:34:00.557Z,1096
2017-04-22T06:34:41.101Z,1108
2017-04-22T06:35:21.626Z,1116
2017-04-22T06:36:02.151Z,1156
2017-04-22T06:36:42.689Z,1144
2017-04-22T06:37:23.225Z,1112
2017-04-22T06:38:03.756Z,1072
2017-04-22T06:38:44.326Z,1088
2017-04-22T06:39:24.862Z,1100
2017-04-22T06:40:05.425Z,1100
2017-04-22T06:40:45.975Z,1108
2017-04-22T06:41:26.517Z,1136
2017-04-22T06:42:07.059Z,1188
2017-04-22T06:42:47.615Z,1256
2017-04-22T06:43:28.152Z,1324
2017-04-22T06:44:08.689Z,1356
2017-04-22T06:44:49.214Z,1356
2017-04-22T06:45:29.764Z,1260
2017-04-22T06:46:10.303Z,1252
2017-04-22T06:46:50.833Z,1320
2017-04-22T06:47:31.478Z,1376
2017-04-22T06:48:12.106Z,1364
2017-04-22T06:48:52.551Z,1368
2017-04-22T06:49:33.092Z,1372
2017-04-22T06:50:13.613Z,1388
2017-04-22T06:50:54.143Z,1352
2017-04-22T06:51:34.677Z,1272
2017-04-22T06:52:15.220Z,1356
2017-04-22T06:52:55.751Z,1408
2017-04-22T06:53:36.320Z,1192
2017-04-22T06:54:16.878Z,1036
2017-04-22T06:54:57.445Z,816
2017-04-22T06:55:38.031Z,768
2017-04-22T06:56:18.542Z,696
2017-04-22T06:56:59.078Z,680
2017-04-22T06:57:39.598Z,668
2017-04-22T06:58:20.137Z,636
2017-04-22T06:59:00.687Z,656
2017-04-22T06:59:41.279Z,904
2017-04-22T07:00:21.819Z,1216
2017-04-22T07:01:02.379Z,1440
2017-04-22T07:01:42.930Z,1508
2017-04-22T07:02:23.489Z,1540
2017-04-22T07:03:04.031Z,1420
2017-04-22T07:03:44.572Z,1348
2017-04-22T07:04:25.128Z,1244
2017-04-22T07:05:05.664Z,1076
2017-04-22T07:05:46.194Z,1136
2017-04-22T07:06:26.737Z,1144
2017-04-22T07:07:07.288Z,1188
2017-04-22T07:07:47.812Z,1188
2017-04-22T07:08:28.510Z,1240
2017-04-22T07:09:09.106Z,1420
2017-04-22T07:09:49.696Z,1728
2017-04-22T07:10:30.258Z,1920
2017-04-22T07:11:10.799Z,1776
2017-04-22T07:11:51.387Z,1716
2017-04-22T07:12:31.945Z,1508
2017-04-22T07:13:12.519Z,1392
2017-04-22T07:13:53.078Z,1228
2017-04-22T07:14:33.656Z,1056
2017-04-22T07:15:14.274Z,892
2017-04-22T07:15:54.852Z,804
2017-04-22T07:16:35.404Z,728
2017-04-22T07:17:15.924Z,748
2017-04-22T07:17:56.490Z,780
2017-04-22T07:18:37.076Z,812
2017-04-22T07:19:17.579Z,840
2017-04-22T07:19:58.124Z,808
2017-04-22T07:20:38.704Z,820
2017-04-22T07:21:19.296Z,836
2017-04-22T07:21:59.855Z,776
2017-04-22T07:22:40.449Z,688
2017-04-22T07:23:20.984Z,584
2017-04-22T07:24:01.525Z,604
2017-04-22T07:24:42.071Z,696
2017-04-22T07:25:22.612Z,748
2017-04-22T07:26:03.156Z,884
2017-04-22T07:26:43.747Z,1160
2017-04-22T07:27:24.302Z,1556
2017-04-22T07:28:04.892Z,1744
2017-04-22T07:28:45.486Z,1812
2017-04-22T07:29:26.023Z,1740
2017-04-22T07:30:06.558Z,1728
2017-04-22T07:30:47.091Z,1540
2017-04-22T07:31:27.634Z,1752
2017-04-22T07:32:08.172Z,1984
2017-04-22T07:32:48.722Z,2060
2017-04-22T07:33:29.312Z,2052
2017-04-22T07:34:09.895Z,2172
2017-04-22T07:34:50.489Z,2272
2017-04-22T07:35:31.076Z,2380
2017-04-22T07:36:11.573Z,2504
2017-04-22T07:36:52.137Z,2612
2017-04-22T07:37:32.649Z,2648
2017-04-22T07:38:13.215Z,2544
2017-04-22T07:38:53.762Z,2460
2017-04-22T07:39:34.304Z,2504
2017-04-22T07:40:14.844Z,2624
2017-04-22T07:40:55.407Z,2824
2017-04-22T07:41:35.977Z,3052
2017-04-22T07:42:16.627Z,3164
2017-04-22T07:42:57.203Z,3044
2017-04-22T07:43:37.814Z,2972
2017-04-22T07:44:18.332Z,3156
2017-04-22T07:44:58.884Z,3484
2017-04-22T07:45:39.470Z,3652
2017-04-22T07:46:20.027Z,3684
2017-04-22T07:47:00.600Z,3616
2017-04-22T07:47:41.113Z,3516
2017-04-22T07:48:26.374Z,3520
2017-04-22T07:49:06.956Z,3680
2017-04-22T07:49:47.550Z,4028
2017-04-22T07:50:28.130Z,4372
2017-04-22T07:51:08.747Z,4496
2017-04-22T07:51:49.403Z,4528
2017-04-22T07:52:29.935Z,4304
2017-04-22T07:53:10.450Z,3784
2017-04-22T07:53:50.999Z,3288
2017-04-22T07:54:31.559Z,2988
2017-04-22T07:55:12.093Z,2548
2017-04-22T07:55:52.643Z,2132
2017-04-22T07:56:33.188Z,2500
2017-04-22T07:57:13.728Z,3100
2017-04-22T07:57:54.377Z,3084
2017-04-22T07:58:34.905Z,3200
2017-04-22T07:59:15.444Z,2452
2017-04-22T07:59:55.971Z,1720
2017-04-22T08:00:36.561Z,1248
2017-04-22T08:01:17.131Z,1136
2017-04-22T08:01:57.627Z,1280
2017-04-22T08:02:38.165Z,1644
2017-04-22T08:03:18.704Z,2688
2017-04-22T08:03:59.249Z,3168
2017-04-22T08:04:39.788Z,2700
2017-04-22T08:05:20.317Z,2324
2017-04-22T08:06:00.858Z,2596
2017-04-22T08:06:41.412Z,2448
2017-04-22T08:07:21.973Z,1872
2017-04-22T08:08:02.473Z,1404
2017-04-22T08:08:43.004Z,1388
2017-04-22T08:09:23.570Z,1752
2017-04-22T08:10:04.114Z,2028
2017-04-22T08:10:44.660Z,1872
2017-04-22T08:11:25.271Z,2184
2017-04-22T08:13:39.539Z,5332
2017-04-22T08:14:20.096Z,5516
2017-04-22T08:15:00.654Z,4884
2017-04-22T08:15:41.206Z,3536
2017-04-22T08:16:21.735Z,2524
2017-04-22T08:17:02.267Z,2052
2017-04-22T08:17:42.798Z,2212
2017-04-22T08:18:23.375Z,2180
2017-04-22T08:19:03.968Z,1976
2017-04-22T08:19:44.491Z,2368
2017-04-22T08:20:25.029Z,3384
2017-04-22T08:21:05.580Z,4416
2017-04-22T08:21:52.615Z,4976
2017-04-22T08:22:33.145Z,5040
2017-04-22T08:23:13.776Z,5024
2017-04-22T08:23:54.332Z,5052
2017-04-22T08:24:34.891Z,5312
2017-04-22T08:25:15.438Z,5940
2017-04-22T08:25:55.937Z,7396
2017-04-22T08:26:36.491Z,8500
2017-04-22T08:27:17.045Z,9536
2017-04-22T08:27:57.577Z,10444
2017-04-22T08:28:38.142Z,10612
2017-04-22T08:29:18.678Z,10248
2017-04-22T08:29:59.212Z,9576
2017-04-22T08:30:39.761Z,8144
2017-04-22T08:31:20.309Z,7360
2017-04-22T08:32:00.838Z,6444
2017-04-22T08:32:41.383Z,5388
2017-04-22T08:33:21.924Z,4864
2017-04-22T08:34:02.449Z,5560
2017-04-22T08:34:42.984Z,5996
2017-04-22T08:35:23.524Z,5780
2017-04-22T08:36:04.057Z,4816
2017-04-22T08:36:44.575Z,4044
2017-04-22T08:37:25.114Z,4024
2017-04-22T08:38:05.655Z,4468
2017-04-22T08:38:46.189Z,4784
2017-04-22T08:39:26.721Z,5232
2017-04-22T08:40:07.261Z,4904
2017-04-22T08:40:47.789Z,4512
2017-04-22T08:41:28.307Z,4168
2017-04-22T08:42:08.846Z,4140
2017-04-22T08:42:49.404Z,3820
2017-04-22T08:43:29.946Z,4072
2017-04-22T08:44:10.483Z,4580
2017-04-22T08:44:51.018Z,4640
2017-04-22T08:45:31.537Z,4540
2017-04-22T08:46:12.102Z,4452
2017-04-22T08:46:52.596Z,4720
2017-04-22T08:47:33.139Z,5548
2017-04-22T08:48:13.666Z,6804
2017-04-22T08:48:54.212Z,6032
2017-04-22T08:49:34.743Z,5628
2017-04-22T08:50:15.270Z,6256
2017-04-22T08:50:55.814Z,6840
2017-04-22T08:51:36.335Z,6612
2017-04-22T08:52:16.872Z,5244
2017-04-22T08:52:57.395Z,4364
2017-04-22T08:53:37.933Z,3492
2017-04-22T08:54:18.501Z,2964
2017-04-22T08:54:59.020Z,2672
2017-04-22T08:55:39.553Z,2528
2017-04-22T08:56:20.090Z,2556
2017-04-22T08:57:00.627Z,2988
2017-04-22T08:57:41.173Z,3336
2017-04-22T08:58:21.699Z,3256
2017-04-22T08:59:02.218Z,3132
2017-04-22T08:59:42.758Z,3112
2017-04-22T09:00:23.303Z,3020
2017-04-22T09:01:03.858Z,2984
2017-04-22T09:01:44.381Z,3304
2017-04-22T09:02:24.919Z,3196
2017-04-22T09:03:05.418Z,3292
2017-04-22T09:03:45.997Z,3600
2017-04-22T09:04:26.544Z,3688
2017-04-22T09:05:07.083Z,4384
2017-04-22T09:05:47.610Z,4868
2017-04-22T09:06:28.155Z,4512
2017-04-22T09:07:08.693Z,4356
2017-04-22T09:07:49.219Z,4576
2017-04-22T09:08:29.744Z,5304
2017-04-22T09:09:10.274Z,4892
2017-04-22T09:09:50.810Z,4404
2017-04-22T09:10:31.337Z,4112
2017-04-22T09:11:11.859Z,3720
2017-04-22T09:11:52.378Z,3628
2017-04-22T09:12:32.912Z,5076
2017-04-22T09:13:13.439Z,5664
2017-04-22T09:13:53.995Z,5856
2017-04-22T09:14:34.536Z,5528
2017-04-22T09:15:15.055Z,4776
2017-04-22T09:15:55.599Z,4616
2017-04-22T09:16:36.133Z,4612
2017-04-22T09:17:16.675Z,4772
2017-04-22T09:17:57.200Z,6272
2017-04-22T09:18:37.746Z,7316
2017-04-22T09:19:18.289Z,6072
2017-04-22T09:19:58.828Z,5844
2017-04-22T09:20:39.371Z,5228
2017-04-22T09:21:19.892Z,5920
2017-04-22T09:22:00.432Z,8028
2017-04-22T09:22:40.956Z,9524
2017-04-22T09:23:21.488Z,10928
2017-04-22T09:24:02.026Z,10644
2017-04-22T09:24:42.555Z,8964
2017-04-22T09:25:23.178Z,5664
2017-04-22T09:26:03.790Z,4340
2017-04-22T09:26:44.353Z,3400
2017-04-22T09:27:24.939Z,3052
2017-04-22T09:28:05.537Z,3084
2017-04-22T09:28:46.094Z,3412
2017-04-22T09:29:26.700Z,3620
2017-04-22T09:30:07.260Z,4424
2017-04-22T09:30:47.838Z,5080
2017-04-22T09:31:28.411Z,4576
2017-04-22T09:32:08.974Z,3708
2017-04-22T09:32:49.557Z,2932
2017-04-22T09:33:30.117Z,2412